Mexico, Indiana
Current Conditions -  °F | °C
As of 4:26 PM on Friday 31 Oct 2014 (Local Time) from KGUS Reporting Station
Light Rain Light Rain  
Wind Chill: 30°   Ceiling: 1200
Heat Index: 39°   Visibility: 10mi
Dew Point: 39°   Wind: 17mph
Humidity: 100%   Direction: 350°N
Pressure: 29.97"   Gusts: 28mph
Location:  40.82°N, 86.12°W
Report Text: KGUS 312026Z 35015G24KT 10SM -RA SCT007 BKN012 OVC024 04/04 A2997 RMK AO2A
Loading
Personal Weather Stations






























Interactive Weather Map
Tropical Storm Tracking
New forecast layout! Learn more

10-Day Weather Forecast

Advertisements
Track Severe Weather on mobile